Time;durP1;ratioP1;P1;durP2;ratioP2;P2;SDS_P1;SDS_P2;PMS_P1;PMS_P2;Temp;Humidity;BMP_temperature;BMP_pressure;BME280_temperature;BME280_humidity;BME280_pressure;Samples;Min_cycle;Max_cycle;Signal;HPM_P1;HPM_P2
2021/07/18 00:01:13;;;;;;;6.72;2.40;;;18.30;99.90;;;;;;5026052;28;20029;-77
2021/07/18 00:03:39;;;;;;;5.90;2.33;;;18.30;99.90;;;;;;5043833;28;20040;-78
2021/07/18 00:06:05;;;;;;;5.60;2.30;;;18.30;99.90;;;;;;5044632;28;20033;-77
2021/07/18 00:08:33;;;;;;;5.25;2.22;;;18.20;99.90;;;;;;5045255;28;20025;-80
2021/07/18 00:11:01;;;;;;;5.95;2.50;;;18.20;99.90;;;;;;5043249;28;20041;-78
2021/07/18 00:13:26;;;;;;;4.32;2.08;;;18.20;99.90;;;;;;5047244;28;20822;-78
2021/07/18 00:15:54;;;;;;;6.05;2.33;;;18.20;99.90;;;;;;5031059;28;20174;-77
2021/07/18 00:18:22;;;;;;;5.93;2.60;;;18.20;99.90;;;;;;5031397;28;20037;-79
2021/07/18 00:20:49;;;;;;;5.65;2.20;;;18.20;99.90;;;;;;5048876;28;20343;-78
2021/07/18 00:23:16;;;;;;;7.13;2.47;;;18.10;99.90;;;;;;5048837;28;20500;-77
2021/07/18 00:25:42;;;;;;;6.30;2.33;;;18.10;99.90;;;;;;5063421;28;20036;-74
2021/07/18 00:28:10;;;;;;;4.80;2.40;;;18.10;99.90;;;;;;5031537;28;21892;-74
2021/07/18 00:30:37;;;;;;;6.15;2.33;;;18.10;99.90;;;;;;5013435;28;20033;-77
2021/07/18 00:33:04;;;;;;;6.22;2.30;;;18.10;99.90;;;;;;5047676;28;20029;-78
2021/07/18 00:35:30;;;;;;;5.57;2.20;;;18.00;99.90;;;;;;5063065;28;20493;-77
2021/07/18 00:37:55;;;;;;;6.20;2.38;;;18.00;99.90;;;;;;5064041;28;20033;-79
2021/07/18 00:40:23;;;;;;;6.25;2.30;;;18.00;99.90;;;;;;5048142;28;20037;-79
2021/07/18 00:42:54;;;;;;;7.22;2.40;;;18.00;99.90;;;;;;5049104;28;20107;-78
2021/07/18 00:45:22;;;;;;;4.80;2.20;;;18.00;99.90;;;;;;5030477;28;20024;-78
2021/07/18 00:47:47;;;;;;;5.43;2.20;;;18.00;99.90;;;;;;5048476;28;20036;-78
2021/07/18 00:50:14;;;;;;;5.30;2.30;;;18.00;99.90;;;;;;5065058;28;20025;-76
2021/07/18 00:52:40;;;;;;;6.05;2.70;;;17.90;99.90;;;;;;5031204;28;20474;-78
2021/07/18 00:55:11;;;;;;;5.40;2.15;;;17.90;99.90;;;;;;5030376;28;20033;-78
2021/07/18 00:57:37;;;;;;;6.35;2.30;;;17.90;99.90;;;;;;5046753;28;20044;-78
2021/07/18 01:00:07;;;;;;;6.72;2.45;;;17.80;99.90;;;;;;5029622;28;20751;-78
2021/07/18 01:02:35;;;;;;;5.95;2.20;;;17.80;99.90;;;;;;5031372;28;20640;-77
2021/07/18 01:05:01;;;;;;;6.20;2.30;;;17.80;99.90;;;;;;5063512;28;20083;-80
2021/07/18 01:07:27;;;;;;;4.70;2.10;;;17.80;99.90;;;;;;5029068;28;20623;-77
2021/07/18 01:09:53;;;;;;;5.80;2.30;;;17.80;99.90;;;;;;5047968;28;20036;-79
2021/07/18 01:12:18;;;;;;;5.85;2.30;;;17.80;99.90;;;;;;5064614;28;20988;-79
2021/07/18 01:14:48;;;;;;;6.07;2.40;;;17.80;99.90;;;;;;5049307;28;20024;-78
2021/07/18 01:17:17;;;;;;;4.78;2.20;;;17.70;99.90;;;;;;5030941;28;20033;-77
2021/07/18 01:19:43;;;;;;;5.65;2.20;;;17.70;99.90;;;;;;5031776;28;20045;-78
2021/07/18 01:22:11;;;;;;;6.03;2.30;;;17.70;99.90;;;;;;5065144;28;20051;-78
2021/07/18 01:24:36;;;;;;;5.18;2.30;;;17.70;99.90;;;;;;5047398;28;20377;-77
2021/07/18 01:27:06;;;;;;;3.88;2.10;;;17.70;99.90;;;;;;5064304;28;20032;-77
2021/07/18 01:29:34;;;;;;;4.00;2.00;;;17.60;99.90;;;;;;5048441;28;20037;-78
2021/07/18 01:32:00;;;;;;;5.00;2.50;;;17.60;99.90;;;;;;5013033;28;20131;-77
2021/07/18 01:34:26;;;;;;;5.25;2.35;;;17.60;99.90;;;;;;5048975;28;20099;-78
2021/07/18 01:36:54;;;;;;;5.72;2.33;;;17.60;99.90;;;;;;5064436;28;20700;-78
2021/07/18 01:39:20;;;;;;;5.35;2.22;;;17.50;99.90;;;;;;5031238;28;20033;-78
2021/07/18 01:41:49;;;;;;;4.20;2.03;;;17.50;99.90;;;;;;5030047;28;20623;-78
2021/07/18 01:44:17;;;;;;;5.55;2.40;;;17.50;99.90;;;;;;5049405;28;20033;-77
2021/07/18 01:46:46;;;;;;;6.40;2.50;;;17.50;99.90;;;;;;5048304;28;20029;-78
2021/07/18 01:49:13;;;;;;;5.05;2.50;;;17.50;99.90;;;;;;5064397;28;20044;-70
2021/07/18 01:51:39;;;;;;;5.03;2.20;;;17.50;99.90;;;;;;5047581;28;20054;-69
2021/07/18 01:54:10;;;;;;;5.30;2.40;;;17.50;99.90;;;;;;5048069;28;20124;-70
2021/07/18 01:56:36;;;;;;;5.03;2.22;;;17.40;99.90;;;;;;5030364;28;20168;-70
2021/07/18 01:59:02;;;;;;;5.45;2.40;;;17.40;99.90;;;;;;5050295;28;20037;-70
2021/07/18 02:01:30;;;;;;;6.13;2.38;;;17.40;99.90;;;;;;5029988;28;20032;-70
2021/07/18 02:03:58;;;;;;;5.70;2.10;;;17.40;99.90;;;;;;5047658;28;20032;-70
2021/07/18 02:06:25;;;;;;;5.20;2.33;;;17.40;99.90;;;;;;5049398;28;20863;-70
2021/07/18 02:08:51;;;;;;;5.50;2.08;;;17.40;99.90;;;;;;5063334;28;20084;-69
2021/07/18 02:11:19;;;;;;;5.82;2.42;;;17.40;99.90;;;;;;5047948;28;20083;-69
2021/07/18 02:13:51;;;;;;;5.45;2.20;;;17.40;99.90;;;;;;5047733;28;20025;-69
2021/07/18 02:16:17;;;;;;;4.60;2.30;;;17.40;99.90;;;;;;5062306;28;20078;-70
2021/07/18 02:18:43;;;;;;;6.35;2.50;;;17.40;99.90;;;;;;5029879;28;20648;-69
2021/07/18 02:21:09;;;;;;;4.97;2.25;;;17.40;99.90;;;;;;5027911;28;20094;-69
2021/07/18 02:23:37;;;;;;;4.05;2.30;;;17.40;99.90;;;;;;5046524;28;20036;-70
2021/07/18 02:26:04;;;;;;;7.78;2.60;;;17.30;99.90;;;;;;5062625;28;20044;-70
2021/07/18 02:28:30;;;;;;;4.45;2.22;;;17.30;99.90;;;;;;5062328;28;20039;-70
2021/07/18 02:30:56;;;;;;;5.05;2.33;;;17.30;99.90;;;;;;5046665;28;20405;-70
2021/07/18 02:33:22;;;;;;;6.50;2.60;;;17.30;99.90;;;;;;5047733;28;20434;-70
2021/07/18 02:35:47;;;;;;;7.95;2.60;;;17.30;99.90;;;;;;5062643;28;20032;-69
2021/07/18 02:38:13;;;;;;;5.13;2.40;;;17.30;99.90;;;;;;5046965;28;20041;-70
2021/07/18 02:40:39;;;;;;;5.82;2.40;;;17.30;99.90;;;;;;5062078;28;20082;-70
2021/07/18 02:43:04;;;;;;;5.63;2.30;;;17.30;99.90;;;;;;5029433;28;20036;-70
2021/07/18 02:45:30;;;;;;;6.07;2.50;;;17.20;99.90;;;;;;5047690;28;20032;-70
2021/07/18 02:47:58;;;;;;;5.68;2.40;;;17.20;99.90;;;;;;5046706;28;20035;-70
2021/07/18 02:50:26;;;;;;;4.65;2.03;;;17.20;99.90;;;;;;5028998;28;20025;-70
2021/07/18 02:52:52;;;;;;;4.90;2.40;;;17.20;99.90;;;;;;5046800;28;20091;-70
2021/07/18 02:55:21;;;;;;;4.32;2.20;;;17.20;99.90;;;;;;5047259;28;20525;-70
2021/07/18 02:57:47;;;;;;;7.43;2.50;;;17.20;99.90;;;;;;5061811;28;20378;-70
2021/07/18 03:00:18;;;;;;;5.75;2.40;;;17.20;99.90;;;;;;5044473;28;20033;-70
2021/07/18 03:02:44;;;;;;;5.70;2.35;;;17.20;99.90;;;;;;5029182;28;20594;-70
2021/07/18 03:05:10;;;;;;;7.68;2.30;;;17.20;99.90;;;;;;5045860;28;20029;-69
2021/07/18 03:07:39;;;;;;;5.85;2.35;;;17.20;99.90;;;;;;5045613;28;20450;-70
2021/07/18 03:10:05;;;;;;;5.45;2.40;;;17.20;99.90;;;;;;5046517;28;20733;-69
2021/07/18 03:12:33;;;;;;;6.10;2.30;;;17.20;99.90;;;;;;5028277;28;20120;-69
2021/07/18 03:15:00;;;;;;;5.25;2.35;;;17.20;99.90;;;;;;5027693;28;20020;-70
2021/07/18 03:17:25;;;;;;;6.40;2.58;;;17.20;99.90;;;;;;5062183;28;20028;-69
2021/07/18 03:19:52;;;;;;;4.68;2.33;;;17.20;99.90;;;;;;5061223;28;20079;-70
2021/07/18 03:22:20;;;;;;;8.73;2.60;;;17.20;99.90;;;;;;5046317;28;20033;-70
2021/07/18 03:24:46;;;;;;;5.63;2.40;;;17.20;99.90;;;;;;5046964;28;20028;-69
2021/07/18 03:27:14;;;;;;;6.28;2.40;;;17.20;99.90;;;;;;5046446;28;20036;-70
2021/07/18 03:29:41;;;;;;;5.47;2.10;;;17.20;99.90;;;;;;5017487;28;20029;-70
2021/07/18 03:32:07;;;;;;;6.00;2.30;;;17.20;99.90;;;;;;5008461;28;20083;-69
2021/07/18 03:34:35;;;;;;;6.18;2.33;;;17.20;99.90;;;;;;5028288;28;20040;-70
2021/07/18 03:37:01;;;;;;;7.07;2.30;;;17.10;99.90;;;;;;5045974;28;20047;-70
2021/07/18 03:39:26;;;;;;;5.93;2.50;;;17.10;99.90;;;;;;5047082;28;20490;-70
2021/07/18 03:41:52;;;;;;;5.93;2.42;;;17.20;99.90;;;;;;5046407;28;20809;-69
2021/07/18 03:44:17;;;;;;;5.18;2.13;;;17.20;99.90;;;;;;5061336;28;20940;-70
2021/07/18 03:46:43;;;;;;;5.38;2.33;;;17.20;99.90;;;;;;5032496;28;20162;-69
2021/07/18 03:49:09;;;;;;;6.43;2.38;;;17.20;99.90;;;;;;5051539;28;20083;-70
2021/07/18 03:51:36;;;;;;;6.47;2.60;;;17.20;99.90;;;;;;5050819;28;20052;-70
2021/07/18 03:54:04;;;;;;;5.90;2.50;;;17.20;99.90;;;;;;5050092;28;20123;-69
2021/07/18 03:56:32;;;;;;;5.60;2.25;;;17.20;99.90;;;;;;5050380;28;20703;-70
2021/07/18 03:58:58;;;;;;;6.40;2.03;;;17.20;99.90;;;;;;5050757;28;20114;-70
2021/07/18 04:01:23;;;;;;;5.13;2.30;;;17.20;99.90;;;;;;5065852;28;20037;-70
2021/07/18 04:03:49;;;;;;;4.90;2.20;;;17.10;99.90;;;;;;5049830;28;20216;-70
2021/07/18 04:06:18;;;;;;;6.28;2.58;;;17.10;99.90;;;;;;5050119;28;21855;-69
2021/07/18 04:08:46;;;;;;;5.95;2.30;;;17.10;99.90;;;;;;5032979;28;20075;-69
2021/07/18 04:11:12;;;;;;;4.93;2.05;;;17.10;99.90;;;;;;5064136;28;20029;-70
2021/07/18 04:13:42;;;;;;;7.13;2.80;;;17.20;99.90;;;;;;5064964;28;20532;-70
2021/07/18 04:16:12;;;;;;;5.22;2.30;;;17.20;99.90;;;;;;5033192;28;20033;-70
2021/07/18 04:18:38;;;;;;;4.85;2.38;;;17.20;99.90;;;;;;5049932;28;20117;-70
2021/07/18 04:21:04;;;;;;;4.63;2.28;;;17.20;99.90;;;;;;5049697;28;20031;-69
2021/07/18 04:23:29;;;;;;;5.28;2.30;;;17.10;99.90;;;;;;5049279;28;20047;-70
2021/07/18 04:25:55;;;;;;;4.72;2.10;;;17.10;99.90;;;;;;5029501;28;20064;-69
2021/07/18 04:28:23;;;;;;;5.05;1.90;;;17.10;99.90;;;;;;5066323;28;20481;-70
2021/07/18 04:30:51;;;;;;;5.13;2.30;;;17.10;99.90;;;;;;5050663;28;20521;-70
2021/07/18 04:33:16;;;;;;;4.57;2.25;;;17.20;99.90;;;;;;5049381;28;20064;-70
2021/07/18 04:35:42;;;;;;;6.15;2.50;;;17.10;99.90;;;;;;5050771;28;20649;-70
2021/07/18 04:38:10;;;;;;;5.95;2.30;;;17.20;99.90;;;;;;5049715;28;20032;-69
2021/07/18 04:40:36;;;;;;;5.68;2.33;;;17.20;99.90;;;;;;5049242;28;20118;-70
2021/07/18 04:43:07;;;;;;;6.28;2.40;;;17.10;99.90;;;;;;5064684;28;20124;-70
2021/07/18 04:45:35;;;;;;;4.50;1.90;;;17.20;99.90;;;;;;5048277;28;20041;-70
2021/07/18 04:48:03;;;;;;;4.72;2.40;;;17.20;99.90;;;;;;5048651;28;20044;-70
2021/07/18 04:50:31;;;;;;;5.25;2.10;;;17.20;99.90;;;;;;5049349;28;20091;-70
2021/07/18 04:52:57;;;;;;;4.60;2.30;;;17.20;99.90;;;;;;5049140;28;20024;-70
2021/07/18 04:55:24;;;;;;;4.95;2.10;;;17.20;99.90;;;;;;5047686;28;20040;-70
2021/07/18 04:57:50;;;;;;;4.40;2.40;;;17.20;99.90;;;;;;5048673;28;20081;-70
2021/07/18 05:00:19;;;;;;;7.30;2.20;;;17.20;99.90;;;;;;5032484;28;20116;-70
2021/07/18 05:02:45;;;;;;;5.80;2.20;;;17.20;99.90;;;;;;5048054;28;20024;-70
2021/07/18 05:05:16;;;;;;;4.97;2.00;;;17.20;99.90;;;;;;5049246;28;21874;-70
2021/07/18 05:07:59;;;;;;;4.38;2.17;;;17.20;99.90;;;;;;5049104;28;20109;-69
2021/07/18 05:10:25;;;;;;;4.72;1.92;;;17.30;99.90;;;;;;5063161;28;20116;-70
2021/07/18 05:12:52;;;;;;;4.15;1.98;;;17.20;99.90;;;;;;5031957;28;20040;-70
2021/07/18 05:15:20;;;;;;;4.57;2.15;;;17.20;99.90;;;;;;5049527;28;20025;-70
2021/07/18 05:17:48;;;;;;;5.18;2.30;;;17.30;99.90;;;;;;5046302;28;20113;-70
2021/07/18 05:20:17;;;;;;;5.47;2.03;;;17.30;99.90;;;;;;5048410;28;20029;-69
2021/07/18 05:22:42;;;;;;;4.00;1.95;;;17.30;99.90;;;;;;5062638;28;20100;-70
2021/07/18 05:25:09;;;;;;;3.97;2.00;;;17.30;99.90;;;;;;5030836;28;20711;-70
2021/07/18 05:27:37;;;;;;;4.53;2.00;;;17.30;99.90;;;;;;5044530;28;20516;-70
2021/07/18 05:30:13;;;;;;;5.57;2.08;;;17.30;99.90;;;;;;5064759;28;20140;-69
2021/07/18 05:32:39;;;;;;;4.38;2.08;;;17.30;99.90;;;;;;5063492;28;20100;-70
2021/07/18 05:35:08;;;;;;;4.75;1.98;;;17.40;99.90;;;;;;5030858;28;20081;-69
2021/07/18 05:37:36;;;;;;;5.05;2.17;;;17.40;99.90;;;;;;5063397;28;20373;-70
2021/07/18 05:40:07;;;;;;;5.53;1.92;;;17.40;99.90;;;;;;5048602;28;20445;-70
2021/07/18 05:42:37;;;;;;;5.22;2.10;;;17.40;99.90;;;;;;5049241;28;20037;-70
2021/07/18 05:45:12;;;;;;;5.32;2.17;;;17.40;99.90;;;;;;5048037;28;20041;-70
2021/07/18 05:47:38;;;;;;;5.63;2.20;;;17.40;99.90;;;;;;5063772;28;20079;-70
2021/07/18 05:50:06;;;;;;;5.43;2.20;;;17.40;99.90;;;;;;5029753;28;20660;-70
2021/07/18 05:52:32;;;;;;;4.50;2.17;;;17.40;99.90;;;;;;5048058;28;20051;-70
2021/07/18 05:54:57;;;;;;;5.45;2.00;;;17.40;99.90;;;;;;5030405;28;20696;-70
2021/07/18 05:57:25;;;;;;;4.32;2.03;;;17.50;99.90;;;;;;5030507;28;20144;-69
2021/07/18 05:59:51;;;;;;;3.88;2.08;;;17.50;99.90;;;;;;5028425;28;20074;-70
2021/07/18 06:02:19;;;;;;;6.47;2.10;;;17.50;99.90;;;;;;5047666;28;20041;-70
2021/07/18 06:04:44;;;;;;;4.65;2.10;;;17.50;99.90;;;;;;5033845;28;20028;-70
2021/07/18 06:07:12;;;;;;;4.50;2.08;;;17.60;99.90;;;;;;5046829;28;20047;-70
2021/07/18 06:09:38;;;;;;;9.10;2.42;;;17.60;99.90;;;;;;5029789;28;20043;-69
2021/07/18 06:12:09;;;;;;;4.10;2.17;;;17.60;99.90;;;;;;5035365;28;20037;-69
2021/07/18 06:14:37;;;;;;;8.50;2.30;;;17.60;99.90;;;;;;5047968;28;20990;-69
2021/07/18 06:17:03;;;;;;;4.95;2.10;;;17.60;99.90;;;;;;5048519;28;20029;-69
2021/07/18 06:19:29;;;;;;;4.07;2.10;;;17.70;99.90;;;;;;5027775;28;20043;-70
2021/07/18 06:21:54;;;;;;;6.07;2.00;;;17.70;99.90;;;;;;5045151;28;20029;-70
2021/07/18 06:24:20;;;;;;;5.00;2.10;;;17.70;99.90;;;;;;5048885;28;20033;-70
2021/07/18 06:26:46;;;;;;;5.10;2.20;;;17.70;99.90;;;;;;5046900;28;20043;-70
2021/07/18 06:29:12;;;;;;;5.25;2.20;;;17.80;99.90;;;;;;5047720;28;20458;-69
2021/07/18 06:31:37;;;;;;;4.95;2.10;;;17.80;99.90;;;;;;5062769;28;20040;-69
2021/07/18 06:34:07;;;;;;;3.83;2.25;;;17.90;99.90;;;;;;5027559;28;20024;-69
2021/07/18 06:36:35;;;;;;;4.00;2.00;;;17.90;99.90;;;;;;5047639;28;20131;-69
2021/07/18 06:39:03;;;;;;;3.65;1.90;;;17.90;99.90;;;;;;5047308;28;20025;-70
2021/07/18 06:41:31;;;;;;;3.88;1.98;;;17.90;99.90;;;;;;5046034;28;20091;-69
2021/07/18 06:43:57;;;;;;;5.32;2.10;;;17.90;99.90;;;;;;5045648;28;20033;-70
2021/07/18 06:46:25;;;;;;;4.80;2.10;;;18.00;99.90;;;;;;5046527;28;20162;-70
2021/07/18 06:48:50;;;;;;;7.78;2.30;;;18.00;99.90;;;;;;5047194;28;20560;-69
2021/07/18 06:51:16;;;;;;;3.63;2.17;;;18.00;99.90;;;;;;5046259;28;20159;-70
2021/07/18 06:53:42;;;;;;;8.55;2.70;;;18.10;99.90;;;;;;5046978;28;20032;-70
2021/07/18 06:56:07;;;;;;;4.82;1.92;;;18.10;99.90;;;;;;5062068;28;20099;-70
2021/07/18 06:58:36;;;;;;;4.35;2.00;;;18.20;99.90;;;;;;5046859;28;20056;-70
2021/07/18 07:01:03;;;;;;;5.82;2.03;;;18.20;99.90;;;;;;5045678;28;20033;-70
2021/07/18 07:03:32;;;;;;;5.07;2.35;;;18.30;99.90;;;;;;5046370;28;21801;-70
2021/07/18 07:05:57;;;;;;;6.68;2.30;;;18.30;99.90;;;;;;5046291;28;20036;-69
2021/07/18 07:08:25;;;;;;;4.95;2.10;;;18.40;99.90;;;;;;5046170;28;20083;-70
2021/07/18 07:10:53;;;;;;;5.22;2.00;;;18.40;99.90;;;;;;5045700;28;20032;-70
2021/07/18 07:13:19;;;;;;;5.20;2.00;;;18.50;99.90;;;;;;5045657;28;20053;-70
2021/07/18 07:15:44;;;;;;;5.68;2.30;;;18.50;99.90;;;;;;5046514;28;20111;-71
2021/07/18 07:18:12;;;;;;;5.10;1.90;;;18.50;99.90;;;;;;5045515;28;20031;-70
2021/07/18 07:20:38;;;;;;;5.07;1.80;;;18.60;99.90;;;;;;5046923;28;20029;-68
2021/07/18 07:23:04;;;;;;;6.43;2.28;;;18.70;99.90;;;;;;5030484;28;20532;-67
2021/07/18 07:25:29;;;;;;;6.28;2.13;;;18.70;99.90;;;;;;5032397;28;20024;-68
2021/07/18 07:27:55;;;;;;;6.20;2.10;;;18.80;99.90;;;;;;5048457;28;20101;-68
2021/07/18 07:30:21;;;;;;;4.78;1.98;;;18.90;99.90;;;;;;5046481;28;20507;-68
2021/07/18 07:32:46;;;;;;;4.78;1.98;;;18.90;99.90;;;;;;5062901;28;20436;-68
2021/07/18 07:35:13;;;;;;;4.53;1.95;;;19.00;99.90;;;;;;5061739;28;20033;-69
2021/07/18 07:37:40;;;;;;;5.13;1.92;;;19.10;99.90;;;;;;5045052;28;20068;-68
2021/07/18 07:40:07;;;;;;;4.13;1.85;;;19.20;99.90;;;;;;5062037;28;20036;-69
2021/07/18 07:42:32;;;;;;;5.40;2.10;;;19.30;99.90;;;;;;5027964;28;20036;-69
2021/07/18 07:45:00;;;;;;;5.47;2.08;;;19.40;99.90;;;;;;5047244;28;20056;-69
2021/07/18 07:47:26;;;;;;;6.70;1.90;;;19.50;99.90;;;;;;5028261;28;20365;-69
2021/07/18 07:49:52;;;;;;;5.07;1.90;;;19.60;99.90;;;;;;5028227;28;20090;-68
2021/07/18 07:52:19;;;;;;;4.57;1.73;;;19.80;99.90;;;;;;5061453;28;20449;-68
2021/07/18 07:54:47;;;;;;;4.97;2.10;;;20.00;99.90;;;;;;5045867;28;20108;-68
2021/07/18 07:57:13;;;;;;;5.72;1.80;;;20.30;99.90;;;;;;5061325;28;20056;-68
2021/07/18 07:59:41;;;;;;;5.40;1.88;;;20.50;99.90;;;;;;5046782;28;20037;-68
2021/07/18 08:02:06;;;;;;;4.70;2.00;;;20.70;99.90;;;;;;5045924;28;20063;-68
2021/07/18 08:04:33;;;;;;;6.30;1.77;;;20.90;99.90;;;;;;5061229;28;20585;-68
2021/07/18 08:07:01;;;;;;;5.18;1.85;;;21.10;99.90;;;;;;5045749;28;20738;-68
2021/07/18 08:09:29;;;;;;;4.93;1.70;;;21.30;99.90;;;;;;5028614;28;20069;-68
2021/07/18 08:11:56;;;;;;;6.10;1.80;;;21.50;99.90;;;;;;5045795;28;20036;-68
2021/07/18 08:14:22;;;;;;;5.72;2.10;;;21.60;99.10;;;;;;5027073;28;20037;-68
2021/07/18 08:16:48;;;;;;;3.03;1.60;;;21.70;99.90;;;;;;5045490;28;20032;-70
2021/07/18 08:19:14;;;;;;;5.05;1.60;;;21.80;98.10;;;;;;5043890;28;20095;-69
2021/07/18 08:21:39;;;;;;;5.68;1.70;;;21.90;99.30;;;;;;5060736;28;20032;-69
2021/07/18 08:24:08;;;;;;;3.97;1.70;;;22.00;98.80;;;;;;5045465;28;20041;-69
2021/07/18 08:26:34;;;;;;;5.13;1.80;;;22.10;98.40;;;;;;5060566;28;20091;-68
2021/07/18 08:28:59;;;;;;;6.63;1.65;;;22.10;92.90;;;;;;5046256;28;20999;-69
2021/07/18 08:31:25;;;;;;;5.22;1.63;;;22.20;97.80;;;;;;5045164;28;20024;-69
2021/07/18 08:33:52;;;;;;;6.13;2.00;;;22.40;99.20;;;;;;5030416;28;20029;-70
2021/07/18 08:36:18;;;;;;;3.38;1.55;;;22.40;98.60;;;;;;5049785;28;20075;-71
2021/07/18 08:38:44;;;;;;;5.95;1.77;;;22.50;97.10;;;;;;5050959;28;20123;-70
2021/07/18 08:41:09;;;;;;;5.47;1.80;;;22.50;97.50;;;;;;5048846;28;20473;-70
2021/07/18 08:43:35;;;;;;;4.20;1.88;;;22.70;98.70;;;;;;5032364;28;20037;-70
2021/07/18 08:46:01;;;;;;;5.65;1.77;;;22.80;97.20;;;;;;5051591;28;20033;-70
2021/07/18 08:48:26;;;;;;;6.05;1.85;;;22.80;97.50;;;;;;5048753;28;20521;-68
2021/07/18 08:50:52;;;;;;;4.53;1.70;;;22.90;98.50;;;;;;5049122;28;20071;-68
2021/07/18 08:53:17;;;;;;;6.00;1.80;;;22.90;96.00;;;;;;5048448;28;20119;-68
2021/07/18 08:55:43;;;;;;;10.07;3.00;;;23.00;97.70;;;;;;5029795;28;20467;-70
2021/07/18 08:58:09;;;;;;;3.88;1.70;;;23.00;99.90;;;;;;5014090;28;20049;-70
2021/07/18 09:00:35;;;;;;;6.70;1.80;;;23.10;99.80;;;;;;5030479;28;20033;-69
2021/07/18 09:03:02;;;;;;;6.85;1.80;;;23.10;96.40;;;;;;5049433;28;20109;-69
2021/07/18 09:05:28;;;;;;;5.82;1.73;;;23.10;95.70;;;;;;5048023;28;20032;-69
2021/07/18 09:07:55;;;;;;;4.15;1.70;;;23.20;95.90;;;;;;5064055;28;20122;-70
2021/07/18 09:10:22;;;;;;;7.40;2.00;;;23.10;94.90;;;;;;5031082;28;20103;-70
2021/07/18 09:13:08;;;;;;;4.22;1.70;;;23.20;96.50;;;;;;5050390;28;20430;-69
2021/07/18 09:15:52;;;;;;;5.63;2.20;;;23.30;97.30;;;;;;5048514;28;20025;-68
2021/07/18 09:18:21;;;;;;;8.73;4.60;;;23.30;93.40;;;;;;5031839;28;20029;-68
2021/07/18 09:20:54;;;;;;;4.32;2.15;;;23.40;97.20;;;;;;5047127;28;20457;-69
2021/07/18 09:23:30;;;;;;;5.30;2.03;;;23.40;98.30;;;;;;5063917;28;20036;-69
2021/07/18 09:26:22;;;;;;;6.28;1.52;;;23.50;96.00;;;;;;5060790;28;20039;-71
2021/07/18 09:28:48;;;;;;;5.72;1.80;;;23.50;92.70;;;;;;5032463;28;20454;-69
2021/07/18 09:31:29;;;;;;;4.55;1.95;;;23.50;96.90;;;;;;5047614;28;20484;-70
2021/07/18 09:34:21;;;;;;;5.65;1.58;;;23.70;97.20;;;;;;5048518;28;20029;-70
2021/07/18 09:36:47;;;;;;;5.63;1.70;;;23.60;87.70;;;;;;5047877;28;20055;-70
2021/07/18 09:39:15;;;;;;;5.00;1.80;;;23.60;93.60;;;;;;5047543;28;20063;-71
2021/07/18 09:41:44;;;;;;;5.75;1.83;;;23.70;96.70;;;;;;5030500;28;20036;-70
2021/07/18 09:44:10;;;;;;;4.95;1.90;;;23.80;94.90;;;;;;5046511;28;20025;-70
2021/07/18 09:46:38;;;;;;;6.80;1.85;;;23.80;95.00;;;;;;5047702;28;20477;-71
2021/07/18 09:49:04;;;;;;;4.57;1.63;;;23.90;97.60;;;;;;5047718;28;20025;-70
2021/07/18 09:51:36;;;;;;;7.72;1.95;;;24.00;94.10;;;;;;5047472;28;20111;-73
2021/07/18 09:54:14;;;;;;;6.65;2.42;;;24.00;94.30;;;;;;4696158;28;10000361;-72
2021/07/18 09:56:40;;;;;;;7.57;3.00;;;24.10;94.20;;;;;;5061787;28;20028;-73
2021/07/18 09:59:10;;;;;;;6.80;2.33;;;24.10;92.80;;;;;;5012929;28;20429;-73
2021/07/18 10:01:36;;;;;;;5.72;2.15;;;24.20;95.00;;;;;;5045296;28;20098;-71
2021/07/18 10:04:04;;;;;;;3.97;1.80;;;24.30;95.30;;;;;;5046143;28;20071;-70
2021/07/18 10:06:33;;;;;;;5.25;2.10;;;24.30;93.40;;;;;;5045145;28;20067;-69
2021/07/18 10:09:04;;;;;;;5.13;1.90;;;24.30;87.40;;;;;;5061877;28;20060;-71
2021/07/18 10:11:32;;;;;;;4.25;1.70;;;24.40;94.50;;;;;;5062013;28;20040;-69
2021/07/18 10:14:00;;;;;;;6.30;2.30;;;24.40;92.40;;;;;;5047455;28;20093;-70
2021/07/18 10:16:28;;;;;;;16.50;12.75;;;24.40;91.50;;;;;;5028510;28;20627;-70
2021/07/18 10:18:57;;;;;;;5.75;2.67;;;24.40;89.80;;;;;;5046221;28;20196;-71
2021/07/18 10:21:25;;;;;;;4.97;2.10;;;24.50;92.20;;;;;;5026165;28;20028;-71
2021/07/18 10:23:52;;;;;;;44.28;3.75;;;24.50;87.90;;;;;;5044398;28;20112;-73
2021/07/18 10:26:19;;;;;;;5.90;2.00;;;24.60;90.90;;;;;;5028068;28;20131;-70
2021/07/18 10:28:46;;;;;;;5.10;2.00;;;24.60;92.90;;;;;;5046157;28;21805;-71
2021/07/18 10:31:23;;;;;;;4.53;2.00;;;24.60;88.10;;;;;;5029877;28;20025;-71
2021/07/18 10:33:54;;;;;;;5.03;2.00;;;24.60;90.60;;;;;;5044837;28;20465;-71
2021/07/18 10:36:20;;;;;;;3.92;1.85;;;24.70;91.90;;;;;;5043266;28;20461;-72
2021/07/18 10:38:46;;;;;;;4.03;1.77;;;24.80;91.60;;;;;;5027714;28;20040;-70
2021/07/18 10:41:12;;;;;;;4.50;2.00;;;24.80;88.90;;;;;;5059828;28;20048;-69
2021/07/18 10:43:47;;;;;;;4.25;2.00;;;24.90;85.30;;;;;;5045272;28;20039;-69
2021/07/18 10:46:14;;;;;;;8.70;5.72;;;24.90;84.70;;;;;;5028093;28;20028;-69
2021/07/18 10:48:52;;;;;;;3.80;1.90;;;24.90;90.30;;;;;;5046392;28;21539;-69
2021/07/18 10:51:23;;;;;;;4.97;2.20;;;25.00;84.10;;;;;;5060191;28;20024;-69
2021/07/18 10:53:51;;;;;;;6.75;2.30;;;25.00;91.00;;;;;;5061115;28;20490;-69
2021/07/18 10:56:18;;;;;;;6.82;2.15;;;25.10;90.40;;;;;;4999835;28;20061;-67
2021/07/18 10:58:47;;;;;;;5.88;2.03;;;25.10;90.50;;;;;;5028314;28;20071;-68
2021/07/18 11:01:35;;;;;;;5.78;2.10;;;25.20;91.10;;;;;;5045370;28;20151;-67
2021/07/18 11:04:06;;;;;;;4.50;2.03;;;25.30;93.20;;;;;;5061016;28;20484;-67
2021/07/18 11:06:37;;;;;;;5.25;2.10;;;25.20;83.70;;;;;;5027958;28;20041;-67
2021/07/18 11:09:08;;;;;;;4.65;1.98;;;25.30;89.90;;;;;;5027618;28;20075;-68
2021/07/18 11:11:42;;;;;;;5.53;2.47;;;25.40;91.40;;;;;;5044956;28;20013;-67
2021/07/18 11:14:31;;;;;;;4.75;2.00;;;25.40;88.60;;;;;;5043824;28;20477;-67
2021/07/18 11:17:23;;;;;;;4.82;2.00;;;25.50;88.50;;;;;;5042318;28;20071;-67
2021/07/18 11:19:58;;;;;;;4.80;2.28;;;25.40;90.60;;;;;;5010362;28;20052;-67
2021/07/18 11:23:04;;;;;;;7.93;2.40;;;25.50;82.40;;;;;;5027230;28;20034;-71
2021/07/18 11:26:04;;;;;;;4.32;1.80;;;25.50;85.60;;;;;;5061023;28;20369;-68
2021/07/18 11:28:35;;;;;;;5.82;2.05;;;25.50;83.90;;;;;;5045141;28;20419;-67
2021/07/18 11:31:12;;;;;;;3.97;1.85;;;25.50;83.30;;;;;;5044050;28;20033;-67
2021/07/18 11:33:40;;;;;;;4.75;2.00;;;25.50;82.50;;;;;;5043417;28;20029;-68
2021/07/18 11:36:08;;;;;;;5.07;2.00;;;25.60;83.90;;;;;;5044181;28;20067;-68
2021/07/18 11:38:39;;;;;;;5.75;1.90;;;25.70;88.00;;;;;;5059431;28;20025;-68
2021/07/18 11:41:25;;;;;;;5.85;2.10;;;25.70;86.20;;;;;;5043762;28;20029;-70
2021/07/18 11:43:53;;;;;;;5.03;1.88;;;25.80;89.90;;;;;;5045165;28;20068;-68
2021/07/18 11:46:22;;;;;;;5.25;2.20;;;25.80;85.60;;;;;;5027572;28;20625;-67
2021/07/18 11:48:53;;;;;;;4.80;1.83;;;25.90;88.20;;;;;;5059665;28;20051;-67
2021/07/18 11:51:25;;;;;;;4.53;2.15;;;26.00;82.00;;;;;;5027447;28;20417;-67
2021/07/18 11:53:54;;;;;;;4.18;2.03;;;26.00;82.80;;;;;;5060686;28;20025;-68
2021/07/18 11:56:29;;;;;;;4.20;2.00;;;26.10;84.20;;;;;;5011340;28;20029;-68
2021/07/18 11:59:21;;;;;;;4.95;2.15;;;26.10;79.80;;;;;;5027301;28;20053;-67
2021/07/18 12:01:52;;;;;;;5.43;2.13;;;26.10;82.50;;;;;;5043842;28;20449;-67
2021/07/18 12:04:24;;;;;;;3.63;1.90;;;26.20;75.80;;;;;;5000059;28;20037;-67
2021/07/18 12:07:05;;;;;;;4.15;1.90;;;26.20;81.60;;;;;;5043683;28;20410;-67
2021/07/18 12:09:39;;;;;;;5.65;2.47;;;26.30;78.40;;;;;;5048836;28;20040;-68
2021/07/18 12:12:06;;;;;;;4.72;2.30;;;26.30;81.80;;;;;;5046982;28;20090;-68
2021/07/18 12:14:37;;;;;;;7.05;2.08;;;26.30;82.40;;;;;;5003858;28;20462;-68
2021/07/18 12:17:04;;;;;;;5.28;2.05;;;26.40;84.50;;;;;;5048462;28;20035;-68
2021/07/18 12:19:33;;;;;;;5.47;1.95;;;26.60;83.70;;;;;;5029758;28;20033;-68
2021/07/18 12:22:00;;;;;;;5.70;1.92;;;26.60;81.60;;;;;;5064151;28;20025;-67
2021/07/18 12:24:33;;;;;;;8.23;2.72;;;26.60;75.30;;;;;;5030948;28;20033;-72
2021/07/18 12:26:59;;;;;;;7.78;5.38;;;26.50;78.10;;;;;;5047954;28;20487;-68
2021/07/18 12:29:29;;;;;;;6.82;2.67;;;26.60;79.40;;;;;;5046816;28;20033;-67
2021/07/18 12:31:54;;;;;;;4.18;2.10;;;26.80;83.20;;;;;;5014439;28;20078;-67
2021/07/18 12:34:25;;;;;;;5.18;2.22;;;26.90;82.90;;;;;;5064452;28;20029;-67
2021/07/18 12:36:52;;;;;;;6.30;2.22;;;26.90;73.50;;;;;;5047968;28;20036;-67
2021/07/18 12:39:22;;;;;;;5.10;2.10;;;27.00;76.80;;;;;;5031180;28;20679;-68
2021/07/18 12:41:48;;;;;;;4.90;2.50;;;27.10;76.20;;;;;;5029126;28;20038;-68
2021/07/18 12:44:16;;;;;;;4.25;2.05;;;27.30;84.30;;;;;;5030353;28;20071;-68
2021/07/18 12:46:43;;;;;;;6.18;2.20;;;27.30;77.60;;;;;;5047050;28;20029;-70
2021/07/18 12:49:12;;;;;;;4.45;2.05;;;27.30;76.20;;;;;;5045779;28;20032;-70
2021/07/18 12:51:38;;;;;;;5.43;2.25;;;27.40;78.20;;;;;;5048053;28;20067;-69